Airfield :
LOGIN :

Register | Disclaimer

   EN    FR    IT 

 










Legend :    VFR   Marginal VFR   IFR   Intensive IFR   Very Intensive IFR
Visi :
Ceiling :
>= 8 km
>= 3000ft
5 to 8 km
1000 to 3000 ft
1500m to 5 km
500 to 1000 ft
800 to 1500m
200 to 500 ft
< 800m
< 200 ft
Symbols :   Thunderstorms  Fog  Heavy snow  Heavy precipitations  Wind > 20 kt
SIGMETs :     Misc.  Thunderstorms  Icing  Turbulence  Mountain Waves  Volcanic Ashes






- Airport Elevation : 242 ft
- IATA code : DUB


EIDW - Dublin

CURRENT METAR :
  • 260130Z 18010KT 150V210 9999 FEW017 SCT021 BKN044 08/04 Q1003 NOSIG

EXPIRED METARs :
  • 260100Z 18009KT 9999 FEW017 SCT022 BKN034 08/04 Q1004 NOSIG
  • 260030Z 19010KT 150V220 9999 FEW017 BKN022 BKN050 08/04 Q1005 NOSIG
  • 260000Z 17011KT 9999 FEW017 BKN023 OVC047 08/04 Q1005 NOSIG
  • 252330Z 20009KT 170V250 9999 FEW017 OVC043 08/04 Q1005 NOSIG
  • 252300Z 17011KT 140V200 9999 FEW017 OVC043 08/03 Q1005 NOSIG

TAF TAF EIDW
Valid from the 26 at 00:00 until the 27 at 00:00 UTC


252300Z 2600/2624 18013KT 9999 FEW013 BKN026
TEMPO 2602/2606 19015G26KT
TEMPO 2604/2607 -RA SCT008 BKN012
BECMG 2606/2608 26016G26KT
PROB40
TEMPO 2607/2609 -SHRA BKN015
BECMG 2608/2610 25013KT
PROB40
TEMPO 2612/2615 26014G25KT -SHRA SCT018CB
BECMG 2614/2616 22008KT
BECMG 2617/2619 19007KT
BECMG 2620/2622 16010KT
TEMPO 2622/2624 -SHRA SCT018CB
BECMG 2623/2624 19015G25KT



MET'MAP, your aeronautical weather chart ! - Copyright ORBIFLY December 2007 - Disclaimer

ORBIFLY MET'MAP TEAM :

Programming & Development : Alexandra Zaïnal
Concept & original design : Baudouin d'Aumeries
Assistance for programming : Marc-Olivier Méhu
Technical & hardware support : Manuel Goepfert

Contact : metmap@orbifly.com




SOURCES & CREDITS :

   NOAA